CTV621 WAPP-WAYY
Flight info
| Callsign | CTV621 |
|---|---|
| Flight time | 1h 31m |
| Altitude | 35000 |
| Route | ATOMY DCT KIKOS DCT TEGEN |
| Aircraft | A320/M-SDE3FGHIRWY/LB1 |
Departure
| Time | 2026-04-24 09:47 |
|---|---|
| Airport | Pattimura International Airport (WAPP) |
Arrival
| Time | 2026-04-24 11:19 |
|---|---|
| Airport | Mozes Kilangin Airport (WAYY) |
| Time | Latitude | Longitude | Altitude | Speed | Heading |
|---|---|---|---|---|---|
| 2026-04-24 09:26 | -3.70627 | 128.08893 | 0 ft | 0 kts | 359° |
| 2026-04-24 09:37 | -3.70647 | 128.08894 | 15 ft | 4 kts | 354° |
| 2026-04-24 09:37 | -3.70673 | 128.08898 | 34 ft | 4 kts | 338° |
| 2026-04-24 09:38 | -3.70694 | 128.08912 | 34 ft | 4 kts | 287° |
| 2026-04-24 09:38 | -3.70696 | 128.08923 | 36 ft | 1 kts | 270° |
| 2026-04-24 09:41 | -3.70696 | 128.08910 | 35 ft | 3 kts | 270° |
| 2026-04-24 09:41 | -3.70696 | 128.08873 | 36 ft | 7 kts | 270° |
| 2026-04-24 09:42 | -3.70696 | 128.08815 | 36 ft | 9 kts | 270° |
| 2026-04-24 09:42 | -3.70726 | 128.08769 | 36 ft | 9 kts | 201° |
| 2026-04-24 09:42 | -3.70798 | 128.08766 | 36 ft | 12 kts | 179° |
| 2026-04-24 09:42 | -3.70899 | 128.08766 | 35 ft | 16 kts | 180° |
| 2026-04-24 09:43 | -3.70985 | 128.08769 | 35 ft | 10 kts | 167° |
| 2026-04-24 09:43 | -3.71049 | 128.08820 | 34 ft | 14 kts | 134° |
| 2026-04-24 09:43 | -3.71094 | 128.08882 | 33 ft | 9 kts | 97° |
| 2026-04-24 09:43 | -3.71057 | 128.08939 | 34 ft | 12 kts | 45° |
| 2026-04-24 09:44 | -3.70989 | 128.09005 | 33 ft | 15 kts | 45° |
| 2026-04-24 09:44 | -3.70904 | 128.09091 | 35 ft | 19 kts | 45° |
| 2026-04-24 09:44 | -3.70806 | 128.09188 | 36 ft | 20 kts | 45° |
| 2026-04-24 09:44 | -3.70702 | 128.09291 | 36 ft | 22 kts | 45° |
| 2026-04-24 09:45 | -3.70587 | 128.09403 | 36 ft | 24 kts | 44° |
| 2026-04-24 09:45 | -3.70466 | 128.09526 | 35 ft | 26 kts | 45° |
| 2026-04-24 09:45 | -3.70348 | 128.09643 | 34 ft | 17 kts | 44° |
| 2026-04-24 09:45 | -3.70277 | 128.09696 | 34 ft | 12 kts | 23° |
| 2026-04-24 09:46 | -3.70224 | 128.09725 | 34 ft | 6 kts | 60° |
| 2026-04-24 09:46 | -3.70242 | 128.09746 | 34 ft | 3 kts | 181° |
| 2026-04-24 09:46 | -3.70262 | 128.09729 | 34 ft | 4 kts | 225° |
| 2026-04-24 09:46 | -3.70268 | 128.09723 | 34 ft | 8 kts | 225° |
| 2026-04-24 09:47 | -3.70487 | 128.09506 | 36 ft | 79 kts | 225° |
| 2026-04-24 09:47 | -3.71013 | 128.08982 | 35 ft | 133 kts | 225° |
| 2026-04-24 09:47 | -3.71759 | 128.08232 | 190 ft | 161 kts | 225° |
| 2026-04-24 09:47 | -3.72532 | 128.07444 | 804 ft | 158 kts | 225° |
| 2026-04-24 09:48 | -3.73307 | 128.06665 | 1405 ft | 158 kts | 225° |
| 2026-04-24 09:48 | -3.74094 | 128.05888 | 1871 ft | 164 kts | 224° |
| 2026-04-24 09:48 | -3.74949 | 128.05048 | 2072 ft | 182 kts | 225° |
| 2026-04-24 09:48 | -3.75897 | 128.04104 | 2266 ft | 202 kts | 225° |
| 2026-04-24 09:49 | -3.77111 | 128.03305 | 2451 ft | 223 kts | 193° |
| 2026-04-24 09:49 | -3.78662 | 128.03503 | 2911 ft | 234 kts | 153° |
| 2026-04-24 09:49 | -3.79975 | 128.04482 | 3634 ft | 237 kts | 138° |
| 2026-04-24 09:49 | -3.81126 | 128.05673 | 4385 ft | 239 kts | 133° |
| 2026-04-24 09:50 | -3.82236 | 128.06919 | 5127 ft | 241 kts | 132° |
| 2026-04-24 09:50 | -3.83359 | 128.08172 | 5848 ft | 243 kts | 133° |
| 2026-04-24 09:50 | -3.84466 | 128.09458 | 6548 ft | 246 kts | 122° |
| 2026-04-24 09:50 | -3.84923 | 128.11093 | 7190 ft | 250 kts | 87° |
| 2026-04-24 09:51 | -3.84375 | 128.12795 | 7509 ft | 269 kts | 58° |
| 2026-04-24 09:51 | -3.83315 | 128.14374 | 8140 ft | 276 kts | 57° |
| 2026-04-24 09:51 | -3.82319 | 128.16071 | 8630 ft | 288 kts | 61° |
| 2026-04-24 09:51 | -3.81338 | 128.17851 | 9230 ft | 295 kts | 62° |
| 2026-04-24 09:52 | -3.80361 | 128.19670 | 9890 ft | 298 kts | 62° |
| 2026-04-24 09:52 | -3.79375 | 128.21537 | 10305 ft | 313 kts | 62° |
| 2026-04-24 09:52 | -3.78329 | 128.23533 | 10454 ft | 334 kts | 62° |
| 2026-04-24 09:52 | -3.77231 | 128.25628 | 10855 ft | 344 kts | 62° |
| 2026-04-24 09:53 | -3.76113 | 128.27758 | 11424 ft | 348 kts | 62° |
| 2026-04-24 09:53 | -3.74982 | 128.29911 | 12016 ft | 351 kts | 62° |
| 2026-04-24 09:53 | -3.73840 | 128.32081 | 12599 ft | 354 kts | 62° |
| 2026-04-24 09:53 | -3.72688 | 128.34272 | 13175 ft | 357 kts | 62° |
| 2026-04-24 09:54 | -3.71525 | 128.36480 | 13744 ft | 360 kts | 62° |
| 2026-04-24 09:54 | -3.70378 | 128.38655 | 14308 ft | 348 kts | 62° |
| 2026-04-24 09:54 | -3.69258 | 128.40786 | 14870 ft | 345 kts | 62° |
| 2026-04-24 09:54 | -3.68140 | 128.42915 | 15433 ft | 347 kts | 62° |
| 2026-04-24 09:55 | -3.67009 | 128.45061 | 15972 ft | 349 kts | 62° |
| 2026-04-24 09:55 | -3.65870 | 128.47217 | 16491 ft | 352 kts | 62° |
| 2026-04-24 09:55 | -3.64702 | 128.49430 | 16658 ft | 366 kts | 62° |
| 2026-04-24 09:55 | -3.63501 | 128.51711 | 17025 ft | 373 kts | 62° |
| 2026-04-24 09:56 | -3.62287 | 128.54019 | 17493 ft | 376 kts | 62° |
| 2026-04-24 09:56 | -3.61063 | 128.56345 | 17979 ft | 379 kts | 62° |
| 2026-04-24 09:56 | -3.59830 | 128.58689 | 18462 ft | 382 kts | 62° |
| 2026-04-24 09:56 | -3.58584 | 128.61047 | 18939 ft | 385 kts | 62° |
| 2026-04-24 09:57 | -3.57326 | 128.63420 | 19428 ft | 387 kts | 62° |
| 2026-04-24 09:57 | -3.56065 | 128.65807 | 19915 ft | 389 kts | 62° |
| 2026-04-24 09:57 | -3.54905 | 128.68226 | 20365 ft | 392 kts | 69° |
| 2026-04-24 09:57 | -3.53930 | 128.70818 | 20856 ft | 394 kts | 69° |
| 2026-04-24 09:58 | -3.52960 | 128.73389 | 21318 ft | 396 kts | 69° |
| 2026-04-24 09:58 | -3.51979 | 128.75976 | 21793 ft | 398 kts | 69° |
| 2026-04-24 09:58 | -3.50991 | 128.78573 | 22247 ft | 400 kts | 69° |
| 2026-04-24 09:58 | -3.49997 | 128.81181 | 22687 ft | 402 kts | 69° |
| 2026-04-24 09:59 | -3.49013 | 128.83770 | 23104 ft | 404 kts | 69° |
| 2026-04-24 09:59 | -3.48012 | 128.86405 | 23519 ft | 406 kts | 69° |
| 2026-04-24 09:59 | -3.47007 | 128.89054 | 23913 ft | 408 kts | 69° |
| 2026-04-24 09:59 | -3.45997 | 128.91718 | 24301 ft | 410 kts | 69° |
| 2026-04-24 10:00 | -3.44982 | 128.94396 | 24666 ft | 412 kts | 69° |
| 2026-04-24 10:00 | -3.43962 | 128.97087 | 25016 ft | 415 kts | 69° |
| 2026-04-24 10:00 | -3.42935 | 128.99788 | 25361 ft | 416 kts | 69° |
| 2026-04-24 10:00 | -3.41900 | 129.02500 | 25703 ft | 418 kts | 69° |
| 2026-04-24 10:01 | -3.40858 | 129.05226 | 26022 ft | 420 kts | 69° |
| 2026-04-24 10:01 | -3.39813 | 129.07964 | 26336 ft | 422 kts | 69° |
| 2026-04-24 10:01 | -3.38764 | 129.10720 | 26644 ft | 424 kts | 69° |
| 2026-04-24 10:01 | -3.37711 | 129.13483 | 26941 ft | 426 kts | 69° |
| 2026-04-24 10:02 | -3.36654 | 129.16258 | 27232 ft | 428 kts | 69° |
| 2026-04-24 10:02 | -3.35592 | 129.19043 | 27466 ft | 430 kts | 69° |
| 2026-04-24 10:02 | -3.34522 | 129.21851 | 27750 ft | 432 kts | 69° |
| 2026-04-24 10:02 | -3.33450 | 129.24664 | 28025 ft | 434 kts | 69° |
| 2026-04-24 10:03 | -3.32372 | 129.27494 | 28249 ft | 436 kts | 69° |
| 2026-04-24 10:03 | -3.31289 | 129.30337 | 28453 ft | 439 kts | 69° |
| 2026-04-24 10:03 | -3.29471 | 129.35103 | 28736 ft | 443 kts | 69° |
| 2026-04-24 10:04 | -3.28373 | 129.37991 | 28978 ft | 444 kts | 69° |
| 2026-04-24 10:04 | -3.27274 | 129.40876 | 29242 ft | 444 kts | 69° |
| 2026-04-24 10:04 | -3.26169 | 129.43771 | 29484 ft | 446 kts | 69° |
| 2026-04-24 10:04 | -3.25063 | 129.46673 | 29720 ft | 448 kts | 70° |
| 2026-04-24 10:05 | -3.23789 | 129.50652 | 29919 ft | 451 kts | 81° |
| 2026-04-24 10:05 | -3.23614 | 129.52723 | 30009 ft | 452 kts | 91° |
| 2026-04-24 10:05 | -3.24064 | 129.55832 | 30144 ft | 454 kts | 105° |
| 2026-04-24 10:05 | -3.24992 | 129.58855 | 30294 ft | 455 kts | 107° |
| 2026-04-24 10:06 | -3.25947 | 129.61876 | 30543 ft | 454 kts | 107° |
| 2026-04-24 10:06 | -3.27865 | 129.67890 | 31099 ft | 452 kts | 107° |
| 2026-04-24 10:06 | -3.28813 | 129.70879 | 31471 ft | 449 kts | 107° |
| 2026-04-24 10:07 | -3.29750 | 129.73857 | 31832 ft | 447 kts | 107° |
| 2026-04-24 10:07 | -3.30630 | 129.76835 | 32242 ft | 445 kts | 105° |
| 2026-04-24 10:07 | -3.31440 | 129.79809 | 32621 ft | 443 kts | 104° |
| 2026-04-24 10:07 | -3.32208 | 129.82788 | 32981 ft | 441 kts | 104° |
| 2026-04-24 10:08 | -3.32959 | 129.85757 | 33309 ft | 440 kts | 104° |
| 2026-04-24 10:08 | -3.33716 | 129.88726 | 33617 ft | 439 kts | 104° |
| 2026-04-24 10:08 | -3.34484 | 129.91678 | 33927 ft | 438 kts | 105° |
| 2026-04-24 10:08 | -3.35263 | 129.94624 | 34215 ft | 437 kts | 105° |
| 2026-04-24 10:09 | -3.36050 | 129.97564 | 34490 ft | 437 kts | 105° |
| 2026-04-24 10:09 | -3.36839 | 130.00495 | 34756 ft | 436 kts | 105° |
| 2026-04-24 10:09 | -3.37631 | 130.03430 | 34853 ft | 437 kts | 105° |
| 2026-04-24 10:10 | -3.39215 | 130.09308 | 34866 ft | 437 kts | 105° |
| 2026-04-24 10:10 | -3.40788 | 130.15186 | 34865 ft | 438 kts | 105° |
| 2026-04-24 10:11 | -3.42354 | 130.21079 | 34865 ft | 438 kts | 105° |
| 2026-04-24 10:11 | -3.43925 | 130.26975 | 34866 ft | 438 kts | 105° |
| 2026-04-24 10:12 | -3.45499 | 130.32874 | 34862 ft | 439 kts | 105° |
| 2026-04-24 10:12 | -3.47081 | 130.38778 | 34861 ft | 440 kts | 105° |
| 2026-04-24 10:13 | -3.47634 | 130.40845 | 34862 ft | 440 kts | 105° |
| 2026-04-24 10:13 | -3.49212 | 130.46762 | 34868 ft | 440 kts | 105° |
| 2026-04-24 10:14 | -3.50785 | 130.52679 | 34843 ft | 441 kts | 105° |
| 2026-04-24 10:14 | -3.52375 | 130.58634 | 34837 ft | 444 kts | 105° |
| 2026-04-24 10:15 | -3.53975 | 130.64618 | 34840 ft | 446 kts | 105° |
| 2026-04-24 10:15 | -3.55573 | 130.70625 | 34847 ft | 447 kts | 105° |
| 2026-04-24 10:16 | -3.57172 | 130.76639 | 34853 ft | 448 kts | 105° |
| 2026-04-24 10:16 | -3.58782 | 130.82663 | 34858 ft | 448 kts | 105° |
| 2026-04-24 10:17 | -3.60391 | 130.88701 | 34864 ft | 449 kts | 105° |
| 2026-04-24 10:17 | -3.61996 | 130.94743 | 34875 ft | 449 kts | 105° |
| 2026-04-24 10:18 | -3.63600 | 131.00783 | 34880 ft | 449 kts | 105° |
| 2026-04-24 10:18 | -3.65206 | 131.06817 | 34883 ft | 449 kts | 105° |
| 2026-04-24 10:19 | -3.66815 | 131.12854 | 34884 ft | 448 kts | 105° |
| 2026-04-24 10:19 | -3.68416 | 131.18883 | 34876 ft | 449 kts | 105° |
| 2026-04-24 10:20 | -3.70029 | 131.24926 | 34860 ft | 450 kts | 105° |
| 2026-04-24 10:20 | -3.71633 | 131.30987 | 34857 ft | 451 kts | 105° |
| 2026-04-24 10:21 | -3.73237 | 131.37060 | 34859 ft | 451 kts | 105° |
| 2026-04-24 10:21 | -3.74856 | 131.43140 | 34864 ft | 452 kts | 105° |
| 2026-04-24 10:22 | -3.76461 | 131.49180 | 34868 ft | 452 kts | 105° |
| 2026-04-24 10:22 | -3.78083 | 131.55304 | 34868 ft | 452 kts | 105° |
| 2026-04-24 10:23 | -3.79686 | 131.61343 | 34870 ft | 452 kts | 105° |
| 2026-04-24 10:23 | -3.81302 | 131.67431 | 34874 ft | 453 kts | 105° |
| 2026-04-24 10:24 | -3.82915 | 131.73519 | 34876 ft | 452 kts | 105° |
| 2026-04-24 10:24 | -3.84529 | 131.79609 | 34875 ft | 452 kts | 105° |
| 2026-04-24 10:25 | -3.86151 | 131.85694 | 34875 ft | 452 kts | 105° |
| 2026-04-24 10:25 | -3.87768 | 131.91777 | 34874 ft | 452 kts | 105° |
| 2026-04-24 10:26 | -3.89375 | 131.97866 | 34875 ft | 452 kts | 105° |
| 2026-04-24 10:26 | -3.90986 | 132.03950 | 34876 ft | 452 kts | 105° |
| 2026-04-24 10:27 | -3.92595 | 132.10036 | 34874 ft | 452 kts | 105° |
| 2026-04-24 10:27 | -3.94205 | 132.16130 | 34876 ft | 453 kts | 105° |
| 2026-04-24 10:28 | -3.95820 | 132.22221 | 34877 ft | 453 kts | 105° |
| 2026-04-24 10:28 | -3.97440 | 132.28314 | 34878 ft | 453 kts | 105° |
| 2026-04-24 10:29 | -3.99048 | 132.34407 | 34882 ft | 453 kts | 105° |
| 2026-04-24 10:29 | -4.00655 | 132.40501 | 34884 ft | 452 kts | 106° |
| 2026-04-24 10:30 | -4.02257 | 132.46575 | 34891 ft | 450 kts | 106° |
| 2026-04-24 10:30 | -4.03854 | 132.52632 | 34891 ft | 449 kts | 106° |
| 2026-04-24 10:31 | -4.05447 | 132.58677 | 34889 ft | 449 kts | 106° |
| 2026-04-24 10:31 | -4.07042 | 132.64715 | 34887 ft | 448 kts | 106° |
| 2026-04-24 10:32 | -4.08488 | 132.70783 | 34884 ft | 449 kts | 98° |
| 2026-04-24 10:32 | -4.09139 | 132.77010 | 34881 ft | 449 kts | 97° |
| 2026-04-24 10:33 | -4.09795 | 132.83231 | 34880 ft | 449 kts | 97° |
| 2026-04-24 10:33 | -4.10449 | 132.89451 | 34879 ft | 449 kts | 97° |
| 2026-04-24 10:34 | -4.11095 | 132.95674 | 34878 ft | 449 kts | 97° |
| 2026-04-24 10:34 | -4.11750 | 133.01893 | 34934 ft | 451 kts | 97° |
| 2026-04-24 10:35 | -4.12404 | 133.08152 | 34946 ft | 452 kts | 97° |
| 2026-04-24 10:35 | -4.13056 | 133.14420 | 34952 ft | 452 kts | 97° |
| 2026-04-24 10:36 | -4.13702 | 133.20685 | 34955 ft | 452 kts | 97° |
| 2026-04-24 10:36 | -4.14354 | 133.26952 | 34960 ft | 452 kts | 97° |
| 2026-04-24 10:37 | -4.15013 | 133.33215 | 34961 ft | 452 kts | 97° |
| 2026-04-24 10:37 | -4.15670 | 133.39485 | 34962 ft | 453 kts | 97° |
| 2026-04-24 10:38 | -4.16314 | 133.45758 | 34964 ft | 453 kts | 97° |
| 2026-04-24 10:38 | -4.16964 | 133.52029 | 34964 ft | 452 kts | 97° |
| 2026-04-24 10:39 | -4.17615 | 133.58251 | 34962 ft | 452 kts | 97° |
| 2026-04-24 10:39 | -4.18274 | 133.64509 | 34963 ft | 451 kts | 96° |
| 2026-04-24 10:40 | -4.18914 | 133.70757 | 34967 ft | 450 kts | 96° |
| 2026-04-24 10:40 | -4.19559 | 133.77034 | 34967 ft | 450 kts | 96° |
| 2026-04-24 10:41 | -4.20210 | 133.83263 | 34965 ft | 449 kts | 96° |
| 2026-04-24 10:41 | -4.20856 | 133.89486 | 34964 ft | 449 kts | 96° |
| 2026-04-24 10:42 | -4.21492 | 133.95708 | 34963 ft | 449 kts | 96° |
| 2026-04-24 10:42 | -4.22133 | 134.01934 | 34962 ft | 449 kts | 96° |
| 2026-04-24 10:43 | -4.22774 | 134.08115 | 34961 ft | 449 kts | 96° |
| 2026-04-24 10:43 | -4.23417 | 134.14334 | 34961 ft | 449 kts | 96° |
| 2026-04-24 10:44 | -4.24057 | 134.20552 | 34963 ft | 449 kts | 96° |
| 2026-04-24 10:44 | -4.24695 | 134.26766 | 34964 ft | 448 kts | 97° |
| 2026-04-24 10:45 | -4.25335 | 134.32962 | 34969 ft | 446 kts | 96° |
| 2026-04-24 10:45 | -4.25970 | 134.39138 | 34969 ft | 445 kts | 97° |
| 2026-04-24 10:46 | -4.26610 | 134.45311 | 34967 ft | 445 kts | 96° |
| 2026-04-24 10:46 | -4.27240 | 134.51474 | 34964 ft | 445 kts | 96° |
| 2026-04-24 10:47 | -4.27766 | 134.56644 | 34965 ft | 445 kts | 96° |
| 2026-04-24 10:47 | -4.28397 | 134.62806 | 34963 ft | 445 kts | 96° |
| 2026-04-24 10:48 | -4.29025 | 134.68967 | 34962 ft | 445 kts | 96° |
| 2026-04-24 10:48 | -4.29651 | 134.75092 | 34962 ft | 445 kts | 96° |
| 2026-04-24 10:49 | -4.30284 | 134.81255 | 34962 ft | 445 kts | 96° |
| 2026-04-24 10:49 | -4.30918 | 134.87421 | 34963 ft | 445 kts | 97° |
| 2026-04-24 10:50 | -4.31551 | 134.93586 | 34963 ft | 445 kts | 96° |
| 2026-04-24 10:50 | -4.32177 | 134.99747 | 34961 ft | 445 kts | 96° |
| 2026-04-24 10:51 | -4.32808 | 135.05913 | 34961 ft | 445 kts | 96° |
| 2026-04-24 10:51 | -4.33427 | 135.12076 | 34959 ft | 445 kts | 96° |
| 2026-04-24 10:52 | -4.34045 | 135.18238 | 34959 ft | 445 kts | 96° |
| 2026-04-24 10:52 | -4.35290 | 135.24278 | 34958 ft | 443 kts | 105° |
| 2026-04-24 10:53 | -4.36898 | 135.30242 | 34951 ft | 444 kts | 105° |
| 2026-04-24 10:53 | -4.37705 | 135.33241 | 34352 ft | 447 kts | 105° |
| 2026-04-24 10:53 | -4.38509 | 135.36246 | 33680 ft | 447 kts | 105° |
| 2026-04-24 10:53 | -4.39312 | 135.39256 | 33004 ft | 447 kts | 105° |
| 2026-04-24 10:54 | -4.40118 | 135.42269 | 32327 ft | 449 kts | 105° |
| 2026-04-24 10:54 | -4.40929 | 135.45289 | 31650 ft | 448 kts | 105° |
| 2026-04-24 10:54 | -4.41735 | 135.48297 | 30975 ft | 447 kts | 105° |
| 2026-04-24 10:54 | -4.42536 | 135.51295 | 30311 ft | 445 kts | 105° |
| 2026-04-24 10:55 | -4.43334 | 135.54274 | 29804 ft | 440 kts | 105° |
| 2026-04-24 10:55 | -4.44123 | 135.57221 | 29302 ft | 435 kts | 105° |
| 2026-04-24 10:55 | -4.44902 | 135.60130 | 28802 ft | 430 kts | 105° |
| 2026-04-24 10:55 | -4.45673 | 135.63009 | 28302 ft | 426 kts | 105° |
| 2026-04-24 10:56 | -4.46439 | 135.65871 | 27800 ft | 423 kts | 105° |
| 2026-04-24 10:56 | -4.47197 | 135.68706 | 27300 ft | 420 kts | 105° |
| 2026-04-24 10:56 | -4.47949 | 135.71529 | 26799 ft | 417 kts | 105° |
| 2026-04-24 10:56 | -4.48684 | 135.74330 | 26298 ft | 415 kts | 104° |
| 2026-04-24 10:57 | -4.49402 | 135.77114 | 25799 ft | 412 kts | 104° |
| 2026-04-24 10:57 | -4.50115 | 135.79886 | 25297 ft | 410 kts | 104° |
| 2026-04-24 10:57 | -4.50820 | 135.82642 | 24797 ft | 407 kts | 104° |
| 2026-04-24 10:57 | -4.51525 | 135.85386 | 24296 ft | 405 kts | 104° |
| 2026-04-24 10:58 | -4.52231 | 135.88111 | 23796 ft | 404 kts | 104° |
| 2026-04-24 10:58 | -4.52940 | 135.90831 | 23295 ft | 402 kts | 104° |
| 2026-04-24 10:58 | -4.53647 | 135.93538 | 22794 ft | 401 kts | 104° |
| 2026-04-24 10:58 | -4.54350 | 135.96235 | 22296 ft | 400 kts | 104° |
| 2026-04-24 10:59 | -4.55047 | 135.98929 | 21794 ft | 398 kts | 104° |
| 2026-04-24 10:59 | -4.55735 | 136.01613 | 21295 ft | 397 kts | 104° |
| 2026-04-24 10:59 | -4.56424 | 136.04287 | 20787 ft | 395 kts | 104° |
| 2026-04-24 10:59 | -4.57111 | 136.06952 | 20292 ft | 394 kts | 104° |
| 2026-04-24 11:00 | -4.57796 | 136.09599 | 19791 ft | 392 kts | 104° |
| 2026-04-24 11:00 | -4.58478 | 136.12232 | 19291 ft | 389 kts | 104° |
| 2026-04-24 11:00 | -4.59158 | 136.14846 | 18789 ft | 387 kts | 104° |
| 2026-04-24 11:00 | -4.59846 | 136.17403 | 18296 ft | 384 kts | 105° |
| 2026-04-24 11:01 | -4.60578 | 136.19965 | 17795 ft | 381 kts | 105° |
| 2026-04-24 11:01 | -4.61323 | 136.22500 | 17290 ft | 378 kts | 105° |
| 2026-04-24 11:01 | -4.62065 | 136.25012 | 16793 ft | 374 kts | 105° |
| 2026-04-24 11:01 | -4.62799 | 136.27502 | 16292 ft | 371 kts | 105° |
| 2026-04-24 11:02 | -4.63522 | 136.29976 | 15789 ft | 368 kts | 105° |
| 2026-04-24 11:02 | -4.64235 | 136.32428 | 15290 ft | 365 kts | 105° |
| 2026-04-24 11:02 | -4.64942 | 136.34865 | 14791 ft | 363 kts | 105° |
| 2026-04-24 11:02 | -4.65640 | 136.37284 | 14294 ft | 360 kts | 105° |
| 2026-04-24 11:03 | -4.66330 | 136.39689 | 13786 ft | 358 kts | 105° |
| 2026-04-24 11:03 | -4.67018 | 136.42079 | 13288 ft | 357 kts | 105° |
| 2026-04-24 11:03 | -4.67707 | 136.44464 | 12786 ft | 355 kts | 105° |
| 2026-04-24 11:03 | -4.68393 | 136.46836 | 12281 ft | 354 kts | 105° |
| 2026-04-24 11:04 | -4.69073 | 136.49184 | 11982 ft | 346 kts | 105° |
| 2026-04-24 11:04 | -4.69728 | 136.51447 | 11941 ft | 330 kts | 105° |
| 2026-04-24 11:04 | -4.70350 | 136.53601 | 11966 ft | 313 kts | 105° |
| 2026-04-24 11:04 | -4.70938 | 136.55651 | 11973 ft | 299 kts | 105° |
| 2026-04-24 11:05 | -4.71500 | 136.57605 | 11981 ft | 286 kts | 105° |
| 2026-04-24 11:05 | -4.72047 | 136.59509 | 11982 ft | 283 kts | 105° |
| 2026-04-24 11:05 | -4.72589 | 136.61405 | 11986 ft | 283 kts | 105° |
| 2026-04-24 11:05 | -4.73129 | 136.63300 | 11980 ft | 283 kts | 105° |
| 2026-04-24 11:06 | -4.73668 | 136.65194 | 11986 ft | 283 kts | 105° |
| 2026-04-24 11:06 | -4.74209 | 136.67092 | 11980 ft | 283 kts | 105° |
| 2026-04-24 11:06 | -4.74751 | 136.68986 | 11982 ft | 283 kts | 105° |
| 2026-04-24 11:06 | -4.75294 | 136.70879 | 11987 ft | 283 kts | 105° |
| 2026-04-24 11:07 | -4.75966 | 136.73215 | 11984 ft | 283 kts | 105° |
| 2026-04-24 11:07 | -4.76508 | 136.75094 | 11973 ft | 276 kts | 105° |
| 2026-04-24 11:07 | -4.77039 | 136.76942 | 11652 ft | 278 kts | 105° |
| 2026-04-24 11:08 | -4.77576 | 136.78817 | 11226 ft | 282 kts | 105° |
| 2026-04-24 11:08 | -4.78111 | 136.80690 | 10806 ft | 285 kts | 105° |
| 2026-04-24 11:08 | -4.78659 | 136.82606 | 10380 ft | 288 kts | 105° |
| 2026-04-24 11:08 | -4.79221 | 136.84568 | 9948 ft | 290 kts | 105° |
| 2026-04-24 11:09 | -4.79780 | 136.86522 | 9519 ft | 293 kts | 105° |
| 2026-04-24 11:09 | -4.80344 | 136.88492 | 9092 ft | 295 kts | 105° |
| 2026-04-24 11:09 | -4.80905 | 136.90447 | 8674 ft | 297 kts | 105° |
| 2026-04-24 11:09 | -4.81474 | 136.92435 | 8242 ft | 295 kts | 105° |
| 2026-04-24 11:10 | -4.82032 | 136.94379 | 7814 ft | 286 kts | 106° |
| 2026-04-24 11:10 | -4.82509 | 136.96280 | 7388 ft | 277 kts | 96° |
| 2026-04-24 11:10 | -4.82431 | 136.98173 | 6961 ft | 269 kts | 76° |
| 2026-04-24 11:10 | -4.81745 | 136.99885 | 6538 ft | 263 kts | 57° |
| 2026-04-24 11:11 | -4.80575 | 137.01249 | 6133 ft | 255 kts | 38° |
| 2026-04-24 11:11 | -4.79139 | 137.02242 | 5757 ft | 248 kts | 33° |
| 2026-04-24 11:11 | -4.77716 | 137.03195 | 5386 ft | 247 kts | 33° |
| 2026-04-24 11:11 | -4.76284 | 137.04163 | 5025 ft | 249 kts | 34° |
| 2026-04-24 11:12 | -4.74860 | 137.05127 | 4776 ft | 245 kts | 34° |
| 2026-04-24 11:12 | -4.73452 | 137.06079 | 4525 ft | 243 kts | 34° |
| 2026-04-24 11:12 | -4.72058 | 137.07022 | 4273 ft | 240 kts | 34° |
| 2026-04-24 11:12 | -4.70684 | 137.07952 | 4043 ft | 236 kts | 34° |
| 2026-04-24 11:13 | -4.69348 | 137.08853 | 3986 ft | 229 kts | 32° |
| 2026-04-24 11:13 | -4.67885 | 137.09423 | 3987 ft | 225 kts | 5° |
| 2026-04-24 11:13 | -4.66403 | 137.09232 | 3965 ft | 211 kts | 338° |
| 2026-04-24 11:13 | -4.65197 | 137.08416 | 3659 ft | 211 kts | 310° |
| 2026-04-24 11:14 | -4.64397 | 137.07195 | 3383 ft | 209 kts | 301° |
| 2026-04-24 11:14 | -4.63646 | 137.05956 | 3116 ft | 207 kts | 301° |
| 2026-04-24 11:14 | -4.62897 | 137.04733 | 2877 ft | 205 kts | 301° |
| 2026-04-24 11:14 | -4.62149 | 137.03523 | 2727 ft | 204 kts | 302° |
| 2026-04-24 11:15 | -4.61401 | 137.02319 | 2567 ft | 202 kts | 301° |
| 2026-04-24 11:15 | -4.60678 | 137.01158 | 2413 ft | 191 kts | 301° |
| 2026-04-24 11:15 | -4.60000 | 137.00070 | 2231 ft | 177 kts | 301° |
| 2026-04-24 11:15 | -4.59374 | 136.99063 | 2084 ft | 164 kts | 302° |
| 2026-04-24 11:16 | -4.58799 | 136.98135 | 1964 ft | 156 kts | 302° |
| 2026-04-24 11:16 | -4.58231 | 136.97220 | 1766 ft | 153 kts | 302° |
| 2026-04-24 11:16 | -4.57679 | 136.96330 | 1594 ft | 148 kts | 302° |
| 2026-04-24 11:16 | -4.57139 | 136.95458 | 1404 ft | 146 kts | 302° |
| 2026-04-24 11:17 | -4.56603 | 136.94593 | 1204 ft | 146 kts | 302° |
| 2026-04-24 11:17 | -4.56069 | 136.93734 | 1019 ft | 145 kts | 302° |
| 2026-04-24 11:17 | -4.55537 | 136.92881 | 827 ft | 144 kts | 302° |
| 2026-04-24 11:17 | -4.55005 | 136.92029 | 640 ft | 144 kts | 302° |
| 2026-04-24 11:18 | -4.54479 | 136.91179 | 461 ft | 143 kts | 301° |
| 2026-04-24 11:18 | -4.53958 | 136.90325 | 300 ft | 144 kts | 302° |
| 2026-04-24 11:18 | -4.53428 | 136.89479 | 123 ft | 143 kts | 302° |
| 2026-04-24 11:18 | -4.52979 | 136.88756 | 110 ft | 87 kts | 302° |
| 2026-04-24 11:19 | -4.52755 | 136.88395 | 110 ft | 43 kts | 302° |
| 2026-04-24 11:19 | -4.52655 | 136.88232 | 110 ft | 14 kts | 301° |
| 2026-04-24 11:19 | -4.52634 | 136.88178 | 108 ft | 6 kts | 257° |
| 2026-04-24 11:19 | -4.52671 | 136.88147 | 110 ft | 8 kts | 211° |
| 2026-04-24 11:20 | -4.52722 | 136.88115 | 110 ft | 10 kts | 212° |
| 2026-04-24 11:20 | -4.52780 | 136.88098 | 110 ft | 6 kts | 147° |
| 2026-04-24 11:20 | -4.52797 | 136.88122 | 110 ft | 5 kts | 123° |
| 2026-04-24 11:20 | -4.52819 | 136.88158 | 110 ft | 7 kts | 121° |
| 2026-04-24 11:21 | -4.52850 | 136.88208 | 110 ft | 10 kts | 122° |
| 2026-04-24 11:21 | -4.52888 | 136.88268 | 110 ft | 10 kts | 122° |
| 2026-04-24 11:21 | -4.52915 | 136.88303 | 110 ft | 2 kts | 151° |
| 2026-04-24 11:21 | -4.52929 | 136.88299 | 110 ft | 3 kts | 205° |
| 2026-04-24 11:22 | -4.52951 | 136.88286 | 110 ft | 4 kts | 211° |
| 2026-04-24 11:22 | -4.52970 | 136.88274 | 110 ft | 2 kts | 211° |
| 2026-04-24 11:22 | -4.52977 | 136.88270 | 110 ft | 0 kts | 211° |